Meteo Giornale » Osservazioni meteo Slovenia » Portoroz

ore: 01:00 - Osservazioni Meteo Portoroz
Lat. 45° 31' N Lon. 13° 34' E Alt. 95 metri s.l.m.

sereno Europe/Ljubljana

22 °C

Sereno

Temp. 24 Ore

20 °C

32 °C

Nord

5.5 Km/h

Dew point 18 °C

Umidità 78 %

Visibilità  10 Km

Il sole sorge alle ore 05:38

Il sole tramonta alle ore 20:46

Data e Ora Cielo e Fenomeni T °C DP °C Um. % Pres. hPa Vis. km Vento km/h
Oggi h: 01:00 sereno Sereno 22 18 78 1014 10 N 5.5
Oggi h: 00:30 sereno Sereno 24 19 73 1014 10 N 3.7
Oggi h: 00:00 sereno Sereno 25 18 65 1013 10 N/NE 7.4
Ieri h: 23:30 sereno Sereno 25 18 65 1013 10 N 5.5
Ieri h: 23:00 sereno Sereno 25 20 73 1013 10 N 1.8
Ieri h: 22:30 sereno Sereno 25 21 78 1013 10 N 1.8
Ieri h: 22:00 sereno Sereno 25 20 73 1013 10 N 13
Ieri h: 21:30 sereno Sereno 25 22 83 1013 10 N 18.5
Ieri h: 21:00 sereno Sereno 26 20 69 1013 10 N/NO 7.4
Ieri h: 20:30 molto_nuvoloso Molto Nuvoloso 26 22 78 1013 10 N 3.7
Ieri h: 20:00 molto_nuvoloso Molto Nuvoloso 26 21 73 1013 10 N 1.8
Ieri h: 19:30 nuvoloso_piovaschi Debole Rovescio di Pioggia 26 21 73 1013 10 N 5.5
Ieri h: 19:00 molto_nuvoloso Molto Nuvoloso 26 21 73 1013 10 E 7.4
Ieri h: 18:30 nuvoloso Nuvoloso 26 21 73 1012 10 E/SE 13
Ieri h: 18:00 nuvoloso Rovescio nelle Vicinanze 28 20 61 1012 10 E 16.7
Ieri h: 17:30 nuvoloso Nuvoloso 29 20 58 1012 10 SE 14.8
Ieri h: 17:00 poco_nuvoloso Poco Nuvoloso 29 18 51 1012 10 S/SE 14.8
Ieri h: 16:30 nuvoloso Nuvoloso 29 18 51 1011 10 E/SE 16.7
Ieri h: 16:00 nuvoloso Nuvoloso 28 18 54 1011 10 E/SE 25.9
Ieri h: 15:30 poco_nuvoloso Poco Nuvoloso 32 23 59 1010 10 O/NO 18.5
Ieri h: 15:00 poco_nuvoloso Poco Nuvoloso 31 24 66 1010 10 O/NO 20.3
Ieri h: 14:30 poco_nuvoloso Poco Nuvoloso 31 24 66 1010 10 O/NO 16.7
Ieri h: 14:00 poco_nuvoloso Poco Nuvoloso 31 22 58 1011 10 O/NO 16.7
Ieri h: 13:30 sereno Sereno 32 22 55 1010 10 O/NO 9.3
Ieri h: 13:00 sereno Sereno 32 21 52 1010 10 N 14.8
Ieri h: 12:30 sereno Sereno 31 21 55 1010 10 N/NE 13
Ieri h: 12:00 sereno Sereno 31 20 52 1011 10 N/NE 13
Ieri h: 11:30 sereno Sereno 31 20 52 1011 10 N 11.1
Ieri h: 11:00 sereno Sereno 29 20 58 1011 10 O/NO 7.4
Ieri h: 10:30 sereno Sereno 28 21 65 1011 10 N 5.5
Ieri h: 10:00 sereno Sereno 27 21 69 1011 10 N 3.7
Ieri h: 09:30 sereno Sereno 27 21 69 1011 10 N 0
Ieri h: 09:00 sereno Sereno 26 21 73 1011 10 N 3.7
Ieri h: 08:30 sereno Sereno 25 20 73 1011 10 E 7.4
Ieri h: 08:00 sereno Sereno 24 20 78 1011 10 E/SE 9.3
Ieri h: 07:30 sereno Sereno 22 19 83 1010 10 E/SE 9.3
Ieri h: 07:00 sereno Sereno 21 19 88 1010 10 E/SE 11.1
Ieri h: 06:30 sereno Sereno 20 18 88 1010 10 E/SE 11.1
Ieri h: 06:00 sereno Sereno 20 18 88 1009 10 E/SE 13
Ieri h: 05:30 sereno Sereno 20 18 88 1009 10 E/SE 11.1
Ieri h: 05:00 sereno Sereno 21 18 82 1009 10 E/SE 13
Ieri h: 04:30 sereno Sereno 21 18 82 1009 10 E/SE 14.8
Ieri h: 04:00 sereno Sereno 20 18 88 1010 10 E/SE 9.3
Ieri h: 03:30 sereno Sereno 20 18 88 1010 10 E 9.3
Ieri h: 03:00 sereno Sereno 20 19 93 1010 10 E/SE 7.4
Ieri h: 02:30 sereno Sereno 21 19 88 1010 10 E/SE 11.1
Ieri h: 02:00 sereno Sereno 21 19 88 1010 10 E/SE 9.3